Time;durP1;ratioP1;P1;durP2;ratioP2;P2;SDS_P1;SDS_P2;PMS_P1;PMS_P2;Temp;Humidity;BMP_temperature;BMP_pressure;BME280_temperature;BME280_humidity;BME280_pressure;Samples;Min_cycle;Max_cycle;Signal;HPM_P1;HPM_P2
2023/08/02 00:01:13;;;;;;;2.10;1.40;;;15.90;99.90;;;;;;5055710;28;20532;-67
2023/08/02 00:03:39;;;;;;;3.35;1.50;;;15.90;99.90;;;;;;5055471;28;20041;-70
2023/08/02 00:06:05;;;;;;;2.03;1.55;;;16.00;99.90;;;;;;5055844;28;20045;-69
2023/08/02 00:08:31;;;;;;;3.00;1.77;;;16.00;99.90;;;;;;5004918;28;20507;-68
2023/08/02 00:10:57;;;;;;;1.60;1.50;;;16.00;99.90;;;;;;5055614;28;20049;-69
2023/08/02 00:13:23;;;;;;;2.42;1.80;;;16.00;99.90;;;;;;5056269;28;20040;-69
2023/08/02 00:15:51;;;;;;;3.92;1.63;;;16.00;99.90;;;;;;5055417;28;20564;-69
2023/08/02 00:18:17;;;;;;;2.00;1.42;;;16.00;99.90;;;;;;5055446;28;20060;-69
2023/08/02 00:20:44;;;;;;;2.80;1.60;;;16.00;99.90;;;;;;5055359;28;20045;-68
2023/08/02 00:23:10;;;;;;;2.33;1.45;;;16.00;99.90;;;;;;5055347;28;20407;-68
2023/08/02 00:25:35;;;;;;;2.38;1.75;;;16.00;99.90;;;;;;5054876;28;20065;-68
2023/08/02 00:28:01;;;;;;;2.28;1.38;;;16.00;99.90;;;;;;5055334;28;20144;-67
2023/08/02 00:30:29;;;;;;;2.60;1.42;;;16.00;99.90;;;;;;5055352;28;20045;-69
2023/08/02 00:32:55;;;;;;;4.50;2.13;;;16.00;99.90;;;;;;5055248;28;20041;-68
2023/08/02 00:35:21;;;;;;;2.90;2.05;;;16.00;99.90;;;;;;5055466;28;20060;-68
2023/08/02 00:37:47;;;;;;;3.85;2.13;;;16.00;99.90;;;;;;5055137;28;20448;-68
2023/08/02 00:40:12;;;;;;;5.50;2.03;;;16.00;99.90;;;;;;5037209;28;20072;-69
2023/08/02 00:42:38;;;;;;;4.55;2.47;;;16.00;99.90;;;;;;5055293;28;20049;-69
2023/08/02 00:45:05;;;;;;;3.03;1.42;;;16.00;99.90;;;;;;5054808;28;20045;-68
2023/08/02 00:47:34;;;;;;;5.25;2.00;;;16.00;99.90;;;;;;5054518;28;20049;-69
2023/08/02 00:50:01;;;;;;;7.50;2.72;;;16.00;99.90;;;;;;5054952;28;20131;-69
2023/08/02 00:52:27;;;;;;;2.97;1.95;;;16.00;99.90;;;;;;5054788;28;20071;-68
2023/08/02 00:54:54;;;;;;;6.32;2.28;;;16.00;99.90;;;;;;5037309;28;20134;-69
2023/08/02 00:57:20;;;;;;;3.00;2.05;;;16.00;99.90;;;;;;5054678;28;20052;-68
2023/08/02 00:59:46;;;;;;;4.72;2.33;;;16.00;99.90;;;;;;5054834;28;20045;-68
2023/08/02 01:02:12;;;;;;;3.10;2.15;;;16.00;99.90;;;;;;5054824;28;20394;-69
2023/08/02 01:04:38;;;;;;;2.40;2.20;;;16.00;99.90;;;;;;5054899;28;20056;-69
2023/08/02 01:07:40;;;;;;;3.20;2.50;;;16.00;99.90;;;;;;5054698;28;20473;-67
2023/08/02 01:10:22;;;;;;;2.85;2.35;;;16.00;99.90;;;;;;5055196;28;20110;-68
2023/08/02 01:12:52;;;;;;;6.40;3.17;;;16.00;99.90;;;;;;5036895;28;20045;-68
2023/08/02 01:15:18;;;;;;;5.05;2.85;;;16.00;99.90;;;;;;5054875;28;20045;-69
2023/08/02 01:17:45;;;;;;;7.30;3.30;;;16.00;99.90;;;;;;5054418;28;20056;-70
2023/08/02 01:20:11;;;;;;;5.63;3.63;;;16.00;99.90;;;;;;5054920;28;20057;-67
2023/08/02 01:22:36;;;;;;;5.50;3.38;;;16.00;99.90;;;;;;5054101;28;20044;-68
2023/08/02 01:25:04;;;;;;;5.10;2.90;;;16.00;99.90;;;;;;5053915;28;20051;-69
2023/08/02 01:27:50;;;;;;;5.70;2.65;;;16.00;99.90;;;;;;5019895;28;20049;-69
2023/08/02 01:30:20;;;;;;;4.55;3.35;;;16.00;99.90;;;;;;5054203;28;20053;-68
2023/08/02 01:32:46;;;;;;;4.30;3.28;;;16.00;99.90;;;;;;5054105;28;20045;-68
2023/08/02 01:35:12;;;;;;;6.50;3.38;;;16.00;99.90;;;;;;5054219;28;20053;-68
2023/08/02 01:37:40;;;;;;;5.70;3.63;;;16.00;99.90;;;;;;5054119;28;20045;-69
2023/08/02 01:40:07;;;;;;;4.60;3.00;;;16.00;99.90;;;;;;5054038;28;20119;-68
2023/08/02 01:42:32;;;;;;;5.38;3.95;;;16.00;99.90;;;;;;5054376;28;20095;-68
2023/08/02 01:44:58;;;;;;;4.70;2.67;;;16.00;99.90;;;;;;5054298;28;20076;-68
2023/08/02 01:47:24;;;;;;;3.70;3.03;;;16.00;99.90;;;;;;5053925;28;20048;-68
2023/08/02 01:49:49;;;;;;;4.75;3.33;;;15.90;99.90;;;;;;5054148;28;20048;-68
2023/08/02 01:52:15;;;;;;;6.95;4.50;;;15.90;99.90;;;;;;5053490;28;20162;-68
2023/08/02 01:54:41;;;;;;;3.55;3.08;;;15.90;99.90;;;;;;5053784;28;20052;-68
2023/08/02 01:57:06;;;;;;;4.28;3.03;;;15.90;99.90;;;;;;5053037;28;20060;-68
2023/08/02 01:59:32;;;;;;;4.00;3.30;;;15.90;99.90;;;;;;5054188;28;20210;-70
2023/08/02 02:01:58;;;;;;;6.20;3.83;;;15.90;99.90;;;;;;5053685;28;20410;-68
2023/08/02 02:04:23;;;;;;;6.93;3.78;;;15.90;99.90;;;;;;5053965;28;20041;-68
2023/08/02 02:06:49;;;;;;;3.97;3.58;;;15.90;99.90;;;;;;5053793;28;20485;-68
2023/08/02 02:09:15;;;;;;;9.05;4.13;;;15.90;99.90;;;;;;5036021;28;20049;-68
2023/08/02 02:11:41;;;;;;;6.00;3.00;;;15.90;99.90;;;;;;5053436;28;20051;-68
2023/08/02 02:14:06;;;;;;;7.28;4.40;;;15.90;99.90;;;;;;5035865;28;20045;-68
2023/08/02 02:16:32;;;;;;;3.60;3.05;;;15.90;99.90;;;;;;5053354;28;20040;-69
2023/08/02 02:18:58;;;;;;;4.03;3.03;;;15.90;99.90;;;;;;5053305;28;20040;-68
2023/08/02 02:21:23;;;;;;;5.93;3.20;;;15.90;99.90;;;;;;5035953;28;20071;-68
2023/08/02 02:23:49;;;;;;;5.00;3.55;;;15.90;99.90;;;;;;5053873;28;20154;-68
2023/08/02 02:26:15;;;;;;;11.63;3.83;;;15.90;99.90;;;;;;5053352;28;20509;-68
2023/08/02 02:28:40;;;;;;;6.43;3.40;;;15.80;99.90;;;;;;5053092;28;20582;-68
2023/08/02 02:31:06;;;;;;;9.60;3.95;;;15.80;99.90;;;;;;5053569;28;20049;-68
2023/08/02 02:33:31;;;;;;;7.95;4.28;;;15.80;99.90;;;;;;5053116;28;20477;-68
2023/08/02 02:35:57;;;;;;;6.70;3.90;;;15.80;99.90;;;;;;5053356;28;20449;-68
2023/08/02 02:38:23;;;;;;;10.57;3.80;;;15.90;99.90;;;;;;5053174;28;20041;-68
2023/08/02 02:40:49;;;;;;;6.82;4.10;;;15.80;99.90;;;;;;5053337;28;20466;-69
2023/08/02 02:43:14;;;;;;;9.45;3.47;;;15.80;99.90;;;;;;5053180;28;20044;-68
2023/08/02 02:45:40;;;;;;;5.50;3.38;;;15.80;99.90;;;;;;5052748;28;20132;-68
2023/08/02 02:48:06;;;;;;;8.13;4.55;;;15.80;99.90;;;;;;5052787;28;20052;-68
2023/08/02 02:50:31;;;;;;;7.00;4.63;;;15.80;99.90;;;;;;5035083;28;20132;-68
2023/08/02 02:52:57;;;;;;;6.95;3.83;;;15.80;99.90;;;;;;5052723;28;20045;-68
2023/08/02 02:55:23;;;;;;;5.05;3.63;;;15.80;99.90;;;;;;5052745;28;20049;-69
2023/08/02 02:57:50;;;;;;;8.73;3.85;;;15.80;99.90;;;;;;5052611;28;20095;-69
2023/08/02 03:00:16;;;;;;;6.07;4.38;;;15.80;99.90;;;;;;5052659;28;20053;-68
2023/08/02 03:02:42;;;;;;;5.90;3.78;;;15.80;99.90;;;;;;5052640;28;20041;-69
2023/08/02 03:05:08;;;;;;;12.40;4.85;;;15.80;99.90;;;;;;5052423;28;20163;-68
2023/08/02 03:07:34;;;;;;;7.47;4.15;;;15.80;99.90;;;;;;5052418;28;20045;-69
2023/08/02 03:09:59;;;;;;;6.68;3.95;;;15.80;99.90;;;;;;5052945;28;20045;-69
2023/08/02 03:12:25;;;;;;;7.60;3.78;;;15.80;99.90;;;;;;5034927;28;20486;-68
2023/08/02 03:14:51;;;;;;;11.05;4.65;;;15.80;99.90;;;;;;5052462;28;20041;-68
2023/08/02 03:17:16;;;;;;;7.97;4.78;;;15.80;99.90;;;;;;5052669;28;20143;-68
2023/08/02 03:19:42;;;;;;;6.68;4.18;;;15.80;99.90;;;;;;5052746;28;20045;-69
2023/08/02 03:22:08;;;;;;;7.55;3.88;;;15.80;99.90;;;;;;5052347;28;20048;-68
2023/08/02 03:24:33;;;;;;;7.82;5.15;;;15.80;99.90;;;;;;5034738;28;20048;-68
2023/08/02 03:26:59;;;;;;;10.07;4.82;;;15.80;99.90;;;;;;5034287;28;20053;-69
2023/08/02 03:29:25;;;;;;;7.53;4.35;;;15.70;99.90;;;;;;5052168;28;20044;-68
2023/08/02 03:31:51;;;;;;;6.55;4.57;;;15.80;99.90;;;;;;5034740;28;20049;-68
2023/08/02 03:34:16;;;;;;;10.82;5.63;;;15.80;99.90;;;;;;5052155;28;20037;-68
2023/08/02 03:36:42;;;;;;;9.40;4.72;;;15.80;99.90;;;;;;5052239;28;20044;-69
2023/08/02 03:39:11;;;;;;;10.65;5.40;;;15.80;99.90;;;;;;5052504;28;20045;-69
2023/08/02 03:41:37;;;;;;;5.78;3.65;;;15.80;99.90;;;;;;5034994;28;20076;-69
2023/08/02 03:44:03;;;;;;;13.75;7.03;;;15.80;99.90;;;;;;5052174;28;20447;-68
2023/08/02 03:46:29;;;;;;;10.30;5.82;;;15.80;99.90;;;;;;5052122;28;20084;-69
2023/08/02 03:48:55;;;;;;;9.25;5.35;;;15.80;99.90;;;;;;5052149;28;20052;-67
2023/08/02 03:51:20;;;;;;;11.52;6.32;;;15.70;99.90;;;;;;5052573;28;20559;-68
2023/08/02 03:53:46;;;;;;;10.45;5.68;;;15.70;99.90;;;;;;5052128;28;20068;-68
2023/08/02 03:56:12;;;;;;;10.65;5.68;;;15.70;99.90;;;;;;5052071;28;20444;-68
2023/08/02 03:58:38;;;;;;;13.20;4.88;;;15.70;99.90;;;;;;5052169;28;20045;-68
2023/08/02 04:01:03;;;;;;;10.52;5.60;;;15.70;99.90;;;;;;5052370;28;20537;-68
2023/08/02 04:03:29;;;;;;;12.00;6.10;;;15.70;99.90;;;;;;5052076;28;20128;-69
2023/08/02 04:05:55;;;;;;;12.40;5.78;;;15.70;99.90;;;;;;5051965;28;20505;-69
2023/08/02 04:08:20;;;;;;;14.20;6.63;;;15.70;99.90;;;;;;5018013;28;20063;-68
2023/08/02 04:10:46;;;;;;;8.50;5.78;;;15.60;99.90;;;;;;5052031;28;20053;-68
2023/08/02 04:13:12;;;;;;;10.07;5.90;;;15.70;99.90;;;;;;5051944;28;20499;-68
2023/08/02 04:15:37;;;;;;;10.00;5.88;;;15.70;99.90;;;;;;5052074;28;20045;-68
2023/08/02 04:18:03;;;;;;;16.95;7.43;;;15.60;99.90;;;;;;5052132;28;20497;-67
2023/08/02 04:20:30;;;;;;;12.52;6.18;;;15.70;99.90;;;;;;5052921;28;20385;-68
2023/08/02 04:22:56;;;;;;;9.75;6.00;;;15.70;99.90;;;;;;5056158;28;20126;-68
2023/08/02 04:25:22;;;;;;;9.25;5.82;;;15.70;99.90;;;;;;5055095;28;20454;-68
2023/08/02 04:27:48;;;;;;;10.32;5.72;;;15.70;99.90;;;;;;5055442;28;20462;-68
2023/08/02 04:30:14;;;;;;;10.98;5.88;;;15.70;99.90;;;;;;5055590;28;20051;-67
2023/08/02 04:32:40;;;;;;;12.80;6.28;;;15.70;99.90;;;;;;5021201;28;20469;-67
2023/08/02 04:35:05;;;;;;;8.35;5.60;;;15.70;99.90;;;;;;5054751;28;20051;-67
2023/08/02 04:37:31;;;;;;;11.52;6.45;;;15.70;99.90;;;;;;5055230;28;20041;-67
2023/08/02 04:39:57;;;;;;;15.25;6.57;;;15.60;99.90;;;;;;5055064;28;20040;-67
2023/08/02 04:42:25;;;;;;;9.15;6.20;;;15.60;99.90;;;;;;5055371;28;20175;-67
2023/08/02 04:44:50;;;;;;;16.05;6.43;;;15.60;99.90;;;;;;5037156;28;20037;-67
2023/08/02 04:47:16;;;;;;;10.07;6.65;;;15.60;99.90;;;;;;5055390;28;20056;-67
2023/08/02 04:49:42;;;;;;;12.95;6.13;;;15.60;99.90;;;;;;5021002;28;20045;-67
2023/08/02 04:52:07;;;;;;;11.85;7.00;;;15.50;99.90;;;;;;5037567;28;20084;-67
2023/08/02 04:54:33;;;;;;;12.45;6.80;;;15.50;99.90;;;;;;5055440;28;20059;-67
2023/08/02 04:56:59;;;;;;;14.63;6.70;;;15.60;99.90;;;;;;5055408;28;20068;-67
2023/08/02 04:59:25;;;;;;;8.60;5.75;;;15.50;99.90;;;;;;5055008;28;20168;-67
2023/08/02 05:01:50;;;;;;;8.88;5.40;;;15.50;99.90;;;;;;5054884;28;20471;-67
2023/08/02 05:04:16;;;;;;;8.15;5.90;;;15.60;99.90;;;;;;5054318;28;20045;-68
2023/08/02 05:06:42;;;;;;;12.82;6.65;;;15.60;99.90;;;;;;5054419;28;20045;-67
2023/08/02 05:09:08;;;;;;;12.52;6.22;;;15.50;99.90;;;;;;5037462;28;20053;-67
2023/08/02 05:11:36;;;;;;;9.48;6.00;;;15.60;99.90;;;;;;5054695;28;20128;-70
2023/08/02 05:14:02;;;;;;;11.95;6.50;;;15.60;99.90;;;;;;5036814;28;20247;-67
2023/08/02 05:16:27;;;;;;;8.85;6.45;;;15.60;99.90;;;;;;5054497;28;20083;-67
2023/08/02 05:18:53;;;;;;;13.85;6.22;;;15.60;99.90;;;;;;5054464;28;20175;-67
2023/08/02 05:21:19;;;;;;;10.68;6.65;;;15.60;99.90;;;;;;5054692;28;20445;-68
2023/08/02 05:23:45;;;;;;;10.98;6.10;;;15.60;99.90;;;;;;5054324;28;20048;-67
2023/08/02 05:26:12;;;;;;;10.73;6.10;;;15.60;99.90;;;;;;5054419;28;20088;-68
2023/08/02 05:28:40;;;;;;;10.63;6.32;;;15.60;99.90;;;;;;5054357;28;20408;-68
2023/08/02 05:31:13;;;;;;;12.48;6.57;;;15.70;99.90;;;;;;5053698;28;20087;-67
2023/08/02 05:33:39;;;;;;;10.18;5.97;;;15.70;99.90;;;;;;5052940;28;20041;-67
2023/08/02 05:36:05;;;;;;;13.10;5.88;;;15.70;99.90;;;;;;5053930;28;20060;-67
2023/08/02 05:38:33;;;;;;;12.55;6.63;;;15.80;99.90;;;;;;5054493;28;20433;-68
2023/08/02 05:41:03;;;;;;;10.65;5.55;;;15.80;99.90;;;;;;5053861;28;20117;-68
2023/08/02 05:43:29;;;;;;;11.27;5.80;;;15.90;99.90;;;;;;5036140;28;20053;-68
2023/08/02 05:45:56;;;;;;;8.88;5.72;;;15.90;99.90;;;;;;5053728;28;20052;-67
2023/08/02 05:48:22;;;;;;;9.38;6.28;;;15.90;99.90;;;;;;5053532;28;20182;-67
2023/08/02 05:50:47;;;;;;;12.30;6.93;;;15.90;99.90;;;;;;5053552;28;20077;-68
2023/08/02 05:53:13;;;;;;;8.80;6.22;;;15.90;99.90;;;;;;5053312;28;20083;-67
2023/08/02 05:55:39;;;;;;;11.48;6.07;;;16.00;99.90;;;;;;5053486;28;20089;-67
2023/08/02 05:58:04;;;;;;;9.65;6.15;;;16.00;99.90;;;;;;5036525;28;20049;-68
2023/08/02 06:00:30;;;;;;;16.55;6.63;;;16.10;99.90;;;;;;5019304;28;20103;-67
2023/08/02 06:02:56;;;;;;;11.23;6.65;;;16.20;99.90;;;;;;5053900;28;20093;-69
2023/08/02 06:05:22;;;;;;;10.77;6.40;;;16.30;99.90;;;;;;5053253;28;20462;-65
2023/08/02 06:07:47;;;;;;;8.27;6.22;;;16.40;99.90;;;;;;5053709;28;20045;-67
2023/08/02 06:10:13;;;;;;;9.90;6.40;;;16.40;99.90;;;;;;5053824;28;20048;-67
2023/08/02 06:12:39;;;;;;;11.20;7.40;;;16.60;99.90;;;;;;5053906;28;20484;-67
2023/08/02 06:15:05;;;;;;;12.27;7.00;;;16.60;99.90;;;;;;5053325;28;20041;-69
2023/08/02 06:17:31;;;;;;;12.48;7.68;;;16.70;99.90;;;;;;5036074;28;20452;-67
2023/08/02 06:19:57;;;;;;;11.00;7.18;;;16.80;99.90;;;;;;5053629;28;20049;-68
2023/08/02 06:22:22;;;;;;;10.27;7.68;;;16.80;99.90;;;;;;5036059;28;20484;-67
2023/08/02 06:24:48;;;;;;;13.25;7.28;;;16.80;99.90;;;;;;5035376;28;20040;-68
2023/08/02 06:27:14;;;;;;;8.48;6.80;;;16.80;99.90;;;;;;5053378;28;20057;-67
2023/08/02 06:29:39;;;;;;;10.13;7.82;;;16.80;99.90;;;;;;5053324;28;20057;-68
2023/08/02 06:32:05;;;;;;;11.02;6.85;;;16.80;99.90;;;;;;5053331;28;20085;-68
2023/08/02 06:34:31;;;;;;;10.80;8.27;;;16.90;99.90;;;;;;5052304;28;20044;-68
2023/08/02 06:36:57;;;;;;;15.05;8.27;;;16.90;99.90;;;;;;5053096;28;20060;-67
2023/08/02 06:39:22;;;;;;;10.18;8.13;;;17.00;99.90;;;;;;5053280;28;20103;-68
2023/08/02 06:41:48;;;;;;;12.52;7.63;;;17.10;99.90;;;;;;5035164;28;20047;-67
2023/08/02 06:44:14;;;;;;;12.82;7.75;;;17.20;99.90;;;;;;5052363;28;20127;-67
2023/08/02 06:46:40;;;;;;;9.18;7.47;;;17.30;99.90;;;;;;5052929;28;20048;-68
2023/08/02 06:49:06;;;;;;;12.35;7.07;;;17.40;99.90;;;;;;5018578;28;20106;-67
2023/08/02 06:51:32;;;;;;;8.75;7.10;;;17.40;99.90;;;;;;5018710;28;20049;-67
2023/08/02 06:53:58;;;;;;;10.23;6.55;;;17.30;99.90;;;;;;5052243;28;20045;-68
2023/08/02 06:56:24;;;;;;;11.85;6.13;;;17.30;99.90;;;;;;5052429;28;20063;-68
2023/08/02 06:58:50;;;;;;;11.93;6.50;;;17.40;99.90;;;;;;5052672;28;20114;-68
2023/08/02 07:01:22;;;;;;;13.98;6.22;;;17.40;99.90;;;;;;5052304;28;20053;-68
2023/08/02 07:03:49;;;;;;;10.63;6.10;;;17.50;99.90;;;;;;5052790;28;20045;-68
2023/08/02 07:06:17;;;;;;;10.77;5.97;;;17.50;99.90;;;;;;5034675;28;20041;-70
2023/08/02 07:08:43;;;;;;;13.27;6.35;;;17.50;99.90;;;;;;5052733;28;20145;-68
2023/08/02 07:11:09;;;;;;;8.93;5.97;;;17.50;99.90;;;;;;5052445;28;20040;-68
2023/08/02 07:13:36;;;;;;;8.23;5.38;;;17.50;99.90;;;;;;5052425;28;20103;-68
2023/08/02 07:16:02;;;;;;;12.35;5.43;;;17.40;99.90;;;;;;5052523;28;20049;-72
2023/08/02 07:18:28;;;;;;;7.95;5.75;;;17.40;99.90;;;;;;5052362;28;20055;-67
2023/08/02 07:20:54;;;;;;;8.02;5.15;;;17.30;99.90;;;;;;5052023;28;20399;-67
2023/08/02 07:23:21;;;;;;;6.28;5.47;;;17.30;99.90;;;;;;5052101;28;20052;-67
2023/08/02 07:25:47;;;;;;;6.13;4.85;;;17.30;99.90;;;;;;5052373;28;20132;-67
2023/08/02 07:28:13;;;;;;;7.43;5.70;;;17.20;99.90;;;;;;5034407;28;20138;-67
2023/08/02 07:30:38;;;;;;;8.55;5.32;;;17.20;99.90;;;;;;5052385;28;20052;-68
2023/08/02 07:33:04;;;;;;;7.65;5.68;;;17.20;99.90;;;;;;5034205;28;20045;-69
2023/08/02 07:35:30;;;;;;;6.93;5.03;;;17.20;99.90;;;;;;5051912;28;20120;-68
2023/08/02 07:37:55;;;;;;;7.05;5.47;;;17.10;99.90;;;;;;5052639;28;20087;-67
2023/08/02 07:40:21;;;;;;;8.07;5.28;;;17.00;99.90;;;;;;5052040;28;20363;-68
2023/08/02 07:42:47;;;;;;;7.53;4.88;;;17.00;99.90;;;;;;5052009;28;20053;-67
2023/08/02 07:45:12;;;;;;;7.75;5.15;;;17.00;99.90;;;;;;5051919;28;20105;-68
2023/08/02 07:47:39;;;;;;;12.50;5.07;;;17.00;99.90;;;;;;5051982;28;20124;-68
2023/08/02 07:50:06;;;;;;;5.93;4.60;;;17.00;99.90;;;;;;5051739;28;20053;-68
2023/08/02 07:52:31;;;;;;;9.18;4.85;;;17.00;99.90;;;;;;5051983;28;20045;-67
2023/08/02 07:54:57;;;;;;;8.57;4.30;;;17.20;99.90;;;;;;5052179;28;20102;-68
2023/08/02 07:57:25;;;;;;;5.80;4.45;;;17.00;99.90;;;;;;5056091;28;20041;-68
2023/08/02 07:59:52;;;;;;;6.85;4.20;;;17.00;99.90;;;;;;5055696;28;20040;-67
2023/08/02 08:02:18;;;;;;;6.43;4.30;;;17.00;99.90;;;;;;5056117;28;20045;-68
2023/08/02 08:04:44;;;;;;;10.43;4.55;;;17.00;99.90;;;;;;5055595;28;20471;-67
2023/08/02 08:07:10;;;;;;;7.65;4.57;;;17.40;99.90;;;;;;5055544;28;20053;-67
2023/08/02 08:09:35;;;;;;;7.65;4.70;;;16.90;99.90;;;;;;5021382;28;20098;-67
2023/08/02 08:12:05;;;;;;;5.57;4.45;;;16.90;99.90;;;;;;5055566;28;20049;-67
2023/08/02 08:14:31;;;;;;;6.68;4.43;;;16.80;99.90;;;;;;5022108;28;20106;-67
2023/08/02 08:16:58;;;;;;;7.90;4.32;;;16.70;99.90;;;;;;5037761;28;20057;-67
2023/08/02 08:19:25;;;;;;;6.45;4.85;;;16.70;99.90;;;;;;5055860;28;20132;-67
2023/08/02 08:21:51;;;;;;;7.72;4.45;;;16.70;99.90;;;;;;5055351;28;20053;-67
2023/08/02 08:24:17;;;;;;;7.88;4.47;;;16.60;99.90;;;;;;5055715;28;20057;-67
2023/08/02 08:26:43;;;;;;;6.20;4.80;;;16.50;99.90;;;;;;5055452;28;20151;-67
2023/08/02 08:29:08;;;;;;;9.07;4.90;;;16.50;99.90;;;;;;5055242;28;20103;-69
2023/08/02 08:31:34;;;;;;;8.50;5.40;;;16.40;99.90;;;;;;5055514;28;20053;-68
2023/08/02 08:33:59;;;;;;;8.10;4.72;;;16.40;99.90;;;;;;5055535;28;20072;-67
2023/08/02 08:36:31;;;;;;;10.63;5.45;;;16.40;99.90;;;;;;5037294;28;20087;-67
2023/08/02 08:38:57;;;;;;;11.65;5.15;;;16.30;99.90;;;;;;5038158;28;20362;-70
2023/08/02 08:41:23;;;;;;;11.35;5.63;;;16.20;99.90;;;;;;5037473;28;20045;-68
2023/08/02 08:43:49;;;;;;;10.93;5.45;;;16.20;99.90;;;;;;5037890;28;20205;-68
2023/08/02 08:46:15;;;;;;;9.60;4.90;;;16.00;99.90;;;;;;5037063;28;20082;-67
2023/08/02 08:48:42;;;;;;;11.75;5.22;;;16.10;99.90;;;;;;5055041;28;20041;-68
2023/08/02 08:51:10;;;;;;;10.63;5.43;;;16.00;99.90;;;;;;5054855;28;20045;-67
2023/08/02 08:53:39;;;;;;;9.25;4.75;;;15.90;99.90;;;;;;5054768;28;20099;-67
2023/08/02 08:56:05;;;;;;;7.13;4.75;;;15.80;99.90;;;;;;5054716;28;20048;-68
2023/08/02 08:58:36;;;;;;;18.98;5.57;;;15.70;99.90;;;;;;5036629;28;20056;-69
2023/08/02 09:01:05;;;;;;;12.27;5.03;;;15.60;99.90;;;;;;5054946;28;20045;-67
2023/08/02 09:03:34;;;;;;;10.88;4.93;;;15.60;99.90;;;;;;5054411;28;20543;-67
2023/08/02 09:06:01;;;;;;;10.32;5.20;;;15.60;99.90;;;;;;5054601;28;20132;-67
2023/08/02 09:08:28;;;;;;;8.73;5.00;;;15.60;99.90;;;;;;5036851;28;20056;-67
2023/08/02 09:10:54;;;;;;;6.30;4.72;;;15.50;99.90;;;;;;5054484;28;20080;-67
2023/08/02 09:13:24;;;;;;;10.18;4.82;;;15.50;99.90;;;;;;5054411;28;20095;-67
2023/08/02 09:16:05;;;;;;;9.50;5.40;;;15.60;99.90;;;;;;5054601;28;20136;-67
2023/08/02 09:18:38;;;;;;;7.63;4.68;;;15.70;99.90;;;;;;5054483;28;20114;-67
2023/08/02 09:21:04;;;;;;;7.50;5.07;;;15.60;99.90;;;;;;5054535;28;20075;-68
2023/08/02 09:23:30;;;;;;;8.38;5.00;;;15.70;99.90;;;;;;5054576;28;20040;-68
2023/08/02 09:26:17;;;;;;;10.00;5.22;;;15.80;99.90;;;;;;5054252;28;20060;-67
2023/08/02 09:29:02;;;;;;;10.02;5.53;;;15.80;99.90;;;;;;5037125;28;20464;-67
2023/08/02 09:31:30;;;;;;;8.50;5.65;;;15.90;99.90;;;;;;5036700;28;20049;-69
2023/08/02 09:33:55;;;;;;;10.18;5.75;;;16.00;99.90;;;;;;5053915;28;20492;-66
2023/08/02 09:36:29;;;;;;;10.15;6.03;;;16.00;99.90;;;;;;5053841;28;20045;-67
2023/08/02 09:39:09;;;;;;;11.38;6.53;;;16.00;99.90;;;;;;5054088;28;20052;-66
2023/08/02 09:41:34;;;;;;;8.00;6.47;;;16.00;99.90;;;;;;5053981;28;20424;-67
2023/08/02 09:44:00;;;;;;;10.30;7.43;;;16.10;99.90;;;;;;5053450;28;20080;-67
2023/08/02 09:46:28;;;;;;;9.27;7.20;;;16.20;99.90;;;;;;5053884;28;20056;-67
2023/08/02 09:48:58;;;;;;;10.57;7.20;;;16.20;99.90;;;;;;5053745;28;20048;-67
2023/08/02 09:51:43;;;;;;;11.57;7.15;;;16.20;99.90;;;;;;5054054;28;20055;-68
2023/08/02 09:54:11;;;;;;;11.85;7.00;;;16.30;99.90;;;;;;5053549;28;20041;-67
2023/08/02 09:56:40;;;;;;;9.27;7.07;;;16.30;99.90;;;;;;5053950;28;20049;-66
2023/08/02 09:59:07;;;;;;;9.77;6.60;;;16.30;99.90;;;;;;5053536;28;20098;-66
2023/08/02 10:01:34;;;;;;;10.65;7.30;;;16.30;99.90;;;;;;5053571;28;20081;-66
2023/08/02 10:04:06;;;;;;;12.27;6.22;;;16.40;99.90;;;;;;5053760;28;20064;-66
2023/08/02 10:06:37;;;;;;;9.90;7.90;;;16.30;99.90;;;;;;5019399;28;20127;-67
2023/08/02 10:09:07;;;;;;;9.20;7.15;;;16.30;99.90;;;;;;5054070;28;20080;-67
2023/08/02 10:11:38;;;;;;;13.23;6.85;;;16.20;99.90;;;;;;5053301;28;20128;-66
2023/08/02 10:14:04;;;;;;;12.57;7.15;;;16.20;99.90;;;;;;5019348;28;20128;-67
2023/08/02 10:16:31;;;;;;;10.50;7.18;;;16.30;99.90;;;;;;5053275;28;20056;-68
2023/08/02 10:18:58;;;;;;;16.58;6.53;;;16.30;99.90;;;;;;5052436;28;20048;-66
2023/08/02 10:21:25;;;;;;;10.57;6.50;;;16.30;99.90;;;;;;5036247;28;20112;-66
2023/08/02 10:23:51;;;;;;;13.30;7.57;;;16.40;99.90;;;;;;5053632;28;20112;-66
2023/08/02 10:26:17;;;;;;;8.93;6.70;;;16.30;99.90;;;;;;5035134;28;20064;-66
2023/08/02 10:28:44;;;;;;;8.70;6.45;;;16.40;99.90;;;;;;5053118;28;20048;-67
2023/08/02 10:31:11;;;;;;;7.70;5.78;;;16.50;99.90;;;;;;5053374;28;20041;-65
2023/08/02 10:33:37;;;;;;;8.18;5.97;;;16.50;99.90;;;;;;5052822;28;20142;-67
2023/08/02 10:36:05;;;;;;;7.95;5.25;;;16.40;99.90;;;;;;5053111;28;20041;-66
2023/08/02 10:38:41;;;;;;;7.15;5.22;;;16.50;99.90;;;;;;5052622;28;20052;-66
2023/08/02 10:41:12;;;;;;;6.60;5.15;;;16.40;99.90;;;;;;5052844;28;20053;-67
2023/08/02 10:43:53;;;;;;;7.03;5.15;;;16.50;99.90;;;;;;5052710;28;20048;-68
2023/08/02 10:46:33;;;;;;;7.53;4.47;;;16.60;99.90;;;;;;5018662;28;20395;-67
2023/08/02 10:49:10;;;;;;;10.48;5.25;;;16.60;99.90;;;;;;5053313;28;20041;-67
2023/08/02 10:51:37;;;;;;;5.03;3.80;;;16.50;99.90;;;;;;5053021;28;20677;-67
2023/08/02 10:54:18;;;;;;;4.53;4.10;;;16.50;99.90;;;;;;5052590;28;20053;-67
2023/08/02 10:56:53;;;;;;;5.32;4.43;;;16.50;99.90;;;;;;5052716;28;20371;-67
2023/08/02 10:59:25;;;;;;;3.70;3.40;;;16.40;99.90;;;;;;5052716;28;20056;-66
2023/08/02 11:01:58;;;;;;;3.95;3.17;;;16.50;99.90;;;;;;5052754;28;20044;-66
2023/08/02 11:04:25;;;;;;;5.90;3.40;;;16.50;99.90;;;;;;5052444;28;20041;-67
2023/08/02 11:06:51;;;;;;;3.70;3.28;;;16.60;99.90;;;;;;5052699;28;20053;-65
2023/08/02 11:09:16;;;;;;;3.63;3.22;;;16.60;99.90;;;;;;5052446;28;20049;-66
2023/08/02 11:11:42;;;;;;;3.47;2.70;;;16.50;99.90;;;;;;5052064;28;20072;-66
2023/08/02 11:14:08;;;;;;;3.70;2.72;;;16.70;99.90;;;;;;5052391;28;20052;-66
2023/08/02 11:16:41;;;;;;;3.45;3.00;;;16.70;99.90;;;;;;5052248;28;20048;-67
2023/08/02 11:19:09;;;;;;;2.45;2.20;;;16.80;99.90;;;;;;5034365;28;20487;-65
2023/08/02 11:21:36;;;;;;;3.65;2.80;;;16.70;99.90;;;;;;5034473;28;20114;-65
2023/08/02 11:24:03;;;;;;;2.30;2.10;;;16.80;99.90;;;;;;5052591;28;20057;-66
2023/08/02 11:26:30;;;;;;;2.10;1.80;;;16.80;99.90;;;;;;5052676;28;20049;-65
2023/08/02 11:28:56;;;;;;;2.33;1.98;;;16.80;99.90;;;;;;5034726;28;20056;-65
2023/08/02 11:31:26;;;;;;;2.20;1.90;;;16.80;99.90;;;;;;5056271;28;20052;-65
2023/08/02 11:33:53;;;;;;;3.00;2.20;;;16.90;99.90;;;;;;5056350;28;20049;-65
2023/08/02 11:36:18;;;;;;;2.22;2.00;;;16.90;99.90;;;;;;5056590;28;20115;-67
2023/08/02 11:38:44;;;;;;;1.85;1.65;;;17.00;99.90;;;;;;5038836;28;20041;-66
2023/08/02 11:41:21;;;;;;;2.65;1.63;;;17.00;99.90;;;;;;5038588;28;20056;-67
2023/08/02 11:43:47;;;;;;;3.10;1.90;;;17.00;99.90;;;;;;5056143;28;20057;-67
2023/08/02 11:46:21;;;;;;;1.70;1.60;;;17.10;99.90;;;;;;5056011;28;20060;-68
2023/08/02 11:48:47;;;;;;;2.30;1.75;;;17.20;99.90;;;;;;5056527;28;20052;-66
2023/08/02 11:51:15;;;;;;;2.20;1.38;;;17.30;99.90;;;;;;5055998;28;20124;-66
2023/08/02 11:53:57;;;;;;;2.03;1.60;;;17.40;99.90;;;;;;5055936;28;20052;-65
2023/08/02 11:56:27;;;;;;;2.55;1.88;;;17.50;99.90;;;;;;5055975;28;20053;-66
2023/08/02 11:58:54;;;;;;;1.80;1.70;;;17.60;99.90;;;;;;5038571;28;20490;-66
2023/08/02 12:01:20;;;;;;;1.73;1.60;;;17.70;99.90;;;;;;5055784;28;20132;-66
2023/08/02 12:04:15;;;;;;;1.73;1.63;;;17.80;99.90;;;;;;5055836;28;20084;-66
2023/08/02 12:06:45;;;;;;;1.60;1.50;;;18.00;99.90;;;;;;5038165;28;20128;-67
2023/08/02 12:09:10;;;;;;;1.60;1.50;;;18.20;99.90;;;;;;5056034;28;20041;-66
2023/08/02 12:11:36;;;;;;;2.80;2.00;;;18.50;99.90;;;;;;5055492;28;20048;-66
2023/08/02 12:14:02;;;;;;;3.50;1.95;;;18.70;99.90;;;;;;5055565;28;20045;-67
2023/08/02 12:16:57;;;;;;;2.38;1.83;;;18.90;99.90;;;;;;5055560;28;20186;-67
2023/08/02 12:19:39;;;;;;;1.58;1.48;;;19.00;99.90;;;;;;5038431;28;20064;-67
2023/08/02 12:22:05;;;;;;;2.20;1.73;;;19.10;99.90;;;;;;5056126;28;20122;-66
2023/08/02 12:24:31;;;;;;;2.15;1.80;;;19.10;99.90;;;;;;5055199;28;20048;-66
2023/08/02 12:27:14;;;;;;;2.25;1.60;;;19.20;99.90;;;;;;5037549;28;20068;-66
2023/08/02 12:29:40;;;;;;;2.17;1.98;;;19.20;99.90;;;;;;5055772;28;20049;-66
2023/08/02 12:32:06;;;;;;;1.88;1.63;;;19.20;99.90;;;;;;5037448;28;20445;-66
2023/08/02 12:34:32;;;;;;;1.98;1.88;;;19.10;99.90;;;;;;5037338;28;20048;-67
2023/08/02 12:36:59;;;;;;;2.83;1.90;;;19.00;99.90;;;;;;5037232;28;20401;-66
2023/08/02 12:39:25;;;;;;;2.42;2.10;;;19.00;99.90;;;;;;5055351;28;20085;-66
2023/08/02 12:41:51;;;;;;;1.92;1.83;;;19.00;99.90;;;;;;5054478;28;20055;-66
2023/08/02 12:44:17;;;;;;;3.42;2.10;;;19.10;99.90;;;;;;5037424;28;20119;-66